| time (UTC) | temp C | wind direction | speed KPH | gust KPH | rain 1hr cm | rain 24hr cm | rain mn cm | humidity % | barometer mb |
| 20260903135332 | 19 | 170 | 11.3 | 27.4 | 0.00 | 0.51 | 0.51 | 90 | 1009.7 |
| 20260903134331 | 20 | 231 | 11.3 | 29.0 | 0.00 | 0.51 | 0.51 | 90 | 1009.7 |
| 20260903133333 | 20 | 269 | 11.3 | 32.2 | 0.00 | 0.51 | 0.51 | 89 | 1009.8 |
| 20260903132332 | 20 | 258 | 9.7 | 29.0 | 0.00 | 0.51 | 0.51 | 90 | 1009.7 |
| 20260903131334 | 20 | 256 | 14.5 | 32.2 | 0.00 | 0.51 | 0.51 | 88 | 1009.8 |
| 20260903130333 | 20 | 212 | 14.5 | 35.4 | 0.00 | 0.51 | 0.51 | 87 | 1009.6 |
| 20260903125334 | 20 | 236 | 17.7 | 30.6 | 0.00 | 0.51 | 0.51 | 88 | 1009.7 |
| 20260903124333 | 20 | 252 | 16.1 | 30.6 | 0.00 | 0.51 | 0.51 | 90 | 1009.7 |
| 20260903123332 | 20 | 264 | 12.9 | 30.6 | 0.00 | 0.51 | 0.51 | 91 | 1009.5 |
| 20260903122333 | 19 | 240 | 11.3 | 38.6 | 0.00 | 0.51 | 0.51 | 93 | 1009.6 |
| 20260903121809 | 19 | 209 | 12.9 | 22.5 | 0.00 | 0.51 | 0.51 | 93 | 1009.6 |
| 20260903120334 | 18 | 234 | 12.9 | 22.5 | 0.00 | 0.51 | 0.51 | 95 | 1009.6 |
| 20260903115333 | 18 | 209 | 9.7 | 22.5 | 0.00 | 0.51 | 0.51 | 94 | 1009.7 |
| 20260903114331 | 18 | 218 | 12.9 | 27.4 | 0.00 | 0.51 | 0.51 | 94 | 1009.8 |
| 20260903113331 | 18 | 0 | 8.0 | 29.0 | 0.00 | 0.51 | 0.51 | 95 | 1009.8 |
| 20260903112819 | 18 | 192 | 14.5 | 29.0 | 0.03 | 0.51 | 0.51 | 96 | 1009.7 |
| 20260903111334 | 17 | 228 | 17.7 | 30.6 | 0.05 | 0.51 | 0.51 | 96 | 1009.8 |
| 20260903110332 | 17 | 198 | 11.3 | 22.5 | 0.05 | 0.51 | 0.51 | 96 | 1009.8 |
| 20260903105331 | 17 | 160 | 11.3 | 19.3 | 0.05 | 0.56 | 0.51 | 96 | 1009.9 |
| 20260903104331 | 17 | 238 | 14.5 | 29.0 | 0.05 | 0.56 | 0.51 | 97 | 1009.9 |
| 20260903103333 | 17 | 201 | 9.7 | 19.3 | 0.08 | 0.56 | 0.51 | 97 | 1010.0 |
| 20260903102331 | 17 | 207 | 11.3 | 20.9 | 0.13 | 0.56 | 0.48 | 97 | 1010.2 |
| 20260903101332 | 17 | 187 | 11.3 | 19.3 | 0.10 | 0.56 | 0.46 | 97 | 1010.2 |
| 20260903100332 | 16 | 226 | 11.3 | 22.5 | 0.13 | 0.56 | 0.46 | 97 | 1010.3 |
| 20260903095331 | 16 | 193 | 12.9 | 20.9 | 0.10 | 0.43 | 0.43 | 97 | 1010.4 |
| 20260903094332 | 16 | 221 | 9.7 | 25.7 | 0.10 | 0.43 | 0.43 | 96 | 1010.3 |
| 20260903093330 | 16 | 208 | 11.3 | 19.3 | 0.10 | 0.43 | 0.43 | 96 | 1010.4 |
| 20260903092332 | 16 | 198 | 11.3 | 25.7 | 0.05 | 0.43 | 0.36 | 96 | 1010.3 |
| 20260903091330 | 16 | 229 | 6.4 | 17.7 | 0.05 | 0.43 | 0.36 | 96 | 1010.5 |
| 20260903090330 | 16 | 188 | 8.0 | 17.7 | 0.18 | 0.43 | 0.33 | 96 | 1010.7 |
| 20260903085330 | 16 | 190 | 9.7 | 20.9 | 0.18 | 0.25 | 0.33 | 96 | 1010.7 |
| 20260903084330 | 16 | 163 | 8.0 | 22.5 | 0.20 | 0.25 | 0.33 | 96 | 1010.6 |
| 20260903083330 | 16 | 177 | 9.7 | 27.4 | 0.18 | 0.25 | 0.33 | 96 | 1010.7 |
| 20260903082330 | 16 | 179 | 11.3 | 19.3 | 0.18 | 0.25 | 0.33 | 96 | 1010.7 |
| 20260903081332 | 16 | 198 | 8.0 | 20.9 | 0.18 | 0.25 | 0.30 | 96 | 1010.7 |
| 20260903080331 | 16 | 196 | 11.3 | 20.9 | 0.05 | 0.25 | 0.15 | 96 | 1010.7 |
| 20260903075331 | 16 | 175 | 9.7 | 20.9 | 0.05 | 0.23 | 0.15 | 96 | 1010.6 |
| 20260903074331 | 16 | 195 | 12.9 | 22.5 | 0.03 | 0.23 | 0.15 | 96 | 1010.8 |
| 20260903073810 | 15 | 213 | 11.3 | 22.5 | 0.08 | 0.23 | 0.15 | 96 | 1010.9 |
| 20260903072331 | 15 | 190 | 9.7 | 19.3 | 0.10 | 0.23 | 0.15 | 96 | 1010.9 |
| 20260903071336 | 15 | 182 | 9.7 | 19.3 | 0.10 | 0.23 | 0.13 | 96 | 1011.0 |
| 20260903070339 | 15 | 215 | 6.4 | 14.5 | 0.10 | 0.23 | 0.13 | 95 | 1011.1 |
| 20260903065337 | 15 | 202 | 8.0 | 17.7 | 0.10 | 0.13 | 0.13 | 95 | 1011.2 |
| 20260903064339 | 15 | 234 | 9.7 | 19.3 | 0.10 | 0.13 | 0.13 | 94 | 1011.2 |
| 20260903063336 | 15 | 203 | 9.7 | 19.3 | 0.05 | 0.13 | 0.05 | 94 | 1011.3 |
| 20260903062332 | 15 | 193 | 9.7 | 22.5 | 0.03 | 0.13 | 0.05 | 93 | 1011.4 |
| 20260903061333 | 15 | 205 | 11.3 | 25.7 | 0.00 | 0.13 | 0.03 | 93 | 1011.4 |
| 20260903060331 | 15 | 199 | 9.7 | 19.3 | 0.00 | 0.13 | 0.03 | 94 | 1011.5 |
| 20260903055330 | 15 | 182 | 6.4 | 19.3 | 0.00 | 0.13 | 0.03 | 94 | 1011.5 |
| 20260903054814 | 15 | 200 | 6.4 | 19.3 | 0.00 | 0.13 | 0.03 | 95 | 1011.7 |
| 20260903053330 | 15 | 184 | 8.0 | 22.5 | 0.00 | 0.13 | 0.03 | 95 | 1011.7 |
| 20260903052804 | 15 | 196 | 12.9 | 22.5 | 0.00 | 0.13 | 0.03 | 95 | 1012.0 |
| 20260903051332 | 15 | 169 | 9.7 | 25.7 | 0.00 | 0.13 | 0.03 | 95 | 1011.8 |
| 20260903050809 | 15 | 180 | 8.0 | 16.1 | 0.00 | 0.13 | 0.03 | 95 | 1012.1 |
| 20260903045329 | 15 | 194 | 8.0 | 19.3 | 0.00 | 0.13 | 0.03 | 95 | 1012.1 |
| 20260903044331 | 15 | 186 | 9.7 | 19.3 | 0.00 | 0.13 | 0.03 | 95 | 1012.1 |
| 20260903043331 | 15 | 208 | 8.0 | 20.9 | 0.00 | 0.13 | 0.03 | 95 | 1012.3 |
| 20260903042330 | 15 | 172 | 8.0 | 20.9 | 0.00 | 0.13 | 0.03 | 95 | 1012.6 |
| 20260903041333 | 15 | 178 | 9.7 | 17.7 | 0.00 | 0.13 | 0.03 | 94 | 1012.6 |
| 20260903040331 | 15 | 196 | 6.4 | 19.3 | 0.03 | 0.13 | 0.03 | 94 | 1012.7 |
| 20260903035808 | 15 | 203 | 8.0 | 16.1 | 0.03 | 0.10 | 0.03 | 95 | 1012.9 |
| 20260903034332 | 15 | 196 | 11.3 | 17.7 | 0.03 | 0.10 | 0.03 | 95 | 1013.0 |
| 20260903033332 | 15 | 181 | 8.0 | 17.7 | 0.03 | 0.10 | 0.03 | 95 | 1013.1 |
| 20260903032333 | 15 | 209 | 8.0 | 17.7 | 0.03 | 0.10 | 0.03 | 94 | 1013.3 |
| 20260903031333 | 15 | 178 | 8.0 | 20.9 | 0.03 | 0.10 | 0.03 | 94 | 1013.6 |
| 20260903030330 | 15 | 180 | 8.0 | 16.1 | 0.00 | 0.10 | 0.00 | 93 | 1013.7 |
| 20260903025329 | 15 | 206 | 9.7 | 19.3 | 0.00 | 0.10 | 0.00 | 92 | 1013.9 |
| 20260903024332 | 15 | 183 | 6.4 | 16.1 | 0.00 | 0.10 | 0.00 | 91 | 1013.8 |
| 20260903023332 | 15 | 191 | 6.4 | 12.9 | 0.00 | 0.10 | 0.00 | 91 | 1014.0 |
| 20260903022330 | 15 | 200 | 3.2 | 11.3 | 0.00 | 0.10 | 0.00 | 91 | 1014.1 |
| 20260903021330 | 16 | 200 | 3.2 | 11.3 | 0.00 | 0.10 | 0.00 | 90 | 1014.1 |
| 20260903020331 | 16 | 201 | 6.4 | 14.5 | 0.00 | 0.10 | 0.00 | 90 | 1014.2 |
| 20260903015331 | 15 | 184 | 8.0 | 17.7 | 0.00 | 0.10 | 0.00 | 91 | 1014.4 |
| 20260903014818 | 15 | 198 | 4.8 | 14.5 | 0.00 | 0.10 | 0.00 | 92 | 1014.5 |
| 20260903013332 | 15 | 178 | 8.0 | 14.5 | 0.00 | 0.10 | 0.00 | 92 | 1014.5 |
| 20260903012333 | 15 | 205 | 6.4 | 12.9 | 0.00 | 0.10 | 0.00 | 92 | 1014.8 |
| 20260903011330 | 15 | 188 | 4.8 | 14.5 | 0.00 | 0.10 | 0.00 | 92 | 1014.9 |
| 20260903010330 | 15 | 190 | 4.8 | 12.9 | 0.00 | 0.10 | 0.00 | 92 | 1015.0 |
| 20260903005332 | 15 | 202 | 3.2 | 11.3 | 0.00 | 0.10 | 0.00 | 93 | 1014.9 |
| 20260903004345 | 15 | 200 | 6.4 | 11.3 | 0.00 | 0.10 | 0.00 | 93 | 1015.0 |
| 20260903003331 | 16 | 194 | 4.8 | 12.9 | 0.00 | 0.10 | 0.00 | 93 | 1015.1 |
| 20260903002803 | 16 | 177 | 6.4 | 16.1 | 0.00 | 0.10 | 0.00 | 93 | 1015.1 |
| 20260903001821 | 16 | 186 | 4.8 | 12.9 | 0.00 | 0.10 | 0.00 | 93 | 1015.3 |
| 20260903000330 | 15 | 180 | 6.4 | 14.5 | 0.00 | 0.10 | 0.00 | 93 | 1015.4 |
| 20260902235333 | 15 | 202 | 6.4 | 12.9 | 0.00 | 0.10 | 0.00 | 93 | 1015.3 |
| 20260902234332 | 16 | 197 | 3.2 | 11.3 | 0.00 | 0.10 | 0.00 | 93 | 1015.5 |
| 20260902233824 | 16 | 207 | 6.4 | 16.1 | 0.00 | 0.10 | 0.00 | 93 | 1015.5 |
| 20260902232331 | 16 | 206 | 4.8 | 14.5 | 0.00 | 0.10 | 0.00 | 93 | 1015.7 |
| 20260902231330 | 16 | 197 | 4.8 | 11.3 | 0.00 | 0.10 | 0.00 | 93 | 1015.8 |
| 20260902230330 | 16 | 212 | 4.8 | 12.9 | 0.00 | 0.10 | 0.00 | 93 | 1015.8 |
| 20260902225329 | 16 | 205 | 4.8 | 11.3 | 0.00 | 0.10 | 0.00 | 93 | 1015.8 |
| 20260902224330 | 16 | 204 | 4.8 | 12.9 | 0.00 | 0.13 | 0.00 | 93 | 1015.8 |
| 20260902223330 | 16 | 199 | 4.8 | 12.9 | 0.00 | 0.13 | 0.00 | 94 | 1015.9 |
| 20260902222803 | 16 | 193 | 6.4 | 16.1 | 0.00 | 0.13 | 0.00 | 94 | 1016.0 |
| 20260902221331 | 16 | 193 | 6.4 | 11.3 | 0.00 | 0.13 | 0.00 | 94 | 1016.1 |
| 20260902220330 | 16 | 210 | 6.4 | 12.9 | 0.00 | 0.13 | 0.00 | 94 | 1016.1 |
| 20260902215330 | 16 | 194 | 4.8 | 11.3 | 0.00 | 0.13 | 0.13 | 94 | 1016.2 |
| 20260902214331 | 16 | 195 | 4.8 | 11.3 | 0.00 | 0.13 | 0.13 | 93 | 1016.2 |
| 20260902213330 | 16 | 200 | 4.8 | 6.4 | 0.00 | 0.13 | 0.13 | 93 | 1016.2 |
| 20260902212331 | 16 | 200 | 4.8 | 8.0 | 0.00 | 0.13 | 0.13 | 93 | 1016.3 |
| 20260902211337 | 16 | 200 | 3.2 | 4.8 | 0.00 | 0.13 | 0.13 | 93 | 1016.3 |
| 20260902210330 | 16 | 199 | 1.6 | 4.8 | 0.00 | 0.13 | 0.13 | 92 | 1016.3 |
| 20260902205816 | 16 | 197 | 1.6 | 8.0 | 0.00 | 0.13 | 0.13 | 92 | 1016.3 |
| 20260902204331 | 16 | 215 | 0.0 | 4.8 | 0.00 | 0.13 | 0.13 | 92 | 1016.4 |
| 20260902203331 | 16 | 215 | 4.8 | 8.0 | 0.00 | 0.13 | 0.13 | 91 | 1016.5 |
| 20260902202332 | 16 | 222 | 3.2 | 8.0 | 0.00 | 0.13 | 0.13 | 91 | 1016.3 |
| 20260902201332 | 16 | 286 | 3.2 | 4.8 | 0.00 | 0.13 | 0.13 | 91 | 1016.5 |
| 20260902200331 | 16 | 294 | 0.0 | 0.0 | 0.00 | 0.13 | 0.13 | 91 | 1016.5 |
| 20260902195334 | 16 | 294 | 0.0 | 4.8 | 0.00 | 0.18 | 0.13 | 91 | 1016.6 |
| 20260902194331 | 16 | 294 | 1.6 | 6.4 | 0.00 | 0.23 | 0.13 | 90 | 1016.6 |
| 20260902193329 | 16 | 228 | 3.2 | 4.8 | 0.00 | 0.23 | 0.13 | 90 | 1016.6 |
| 20260902192329 | 16 | 228 | 3.2 | 6.4 | 0.00 | 0.25 | 0.13 | 89 | 1016.6 |
| 20260902191332 | 16 | 232 | 1.6 | 4.8 | 0.00 | 0.25 | 0.13 | 89 | 1016.6 |
| 20260902190332 | 16 | 232 | 3.2 | 4.8 | 0.00 | 0.25 | 0.13 | 89 | 1016.7 |
| 20260902185331 | 16 | 232 | 3.2 | 4.8 | 0.00 | 0.25 | 0.13 | 87 | 1016.6 |
| 20260902184332 | 16 | 232 | 1.6 | 4.8 | 0.00 | 0.41 | 0.13 | 86 | 1016.6 |
| 20260902183329 | 16 | 232 | 3.2 | 6.4 | 0.00 | 0.41 | 0.13 | 85 | 1016.4 |
| 20260902182803 | 17 | 232 | 3.2 | 6.4 | 0.00 | 0.41 | 0.13 | 84 | 1016.5 |
| 20260902181331 | 17 | 234 | 3.2 | 11.3 | 0.00 | 0.41 | 0.13 | 83 | 1016.4 |
| 20260902180332 | 17 | 242 | 3.2 | 12.9 | 0.00 | 0.41 | 0.13 | 82 | 1016.4 |
| 20260902175329 | 17 | 277 | 4.8 | 16.1 | 0.00 | 0.41 | 0.13 | 82 | 1016.3 |
| 20260902174330 | 18 | 254 | 6.4 | 12.9 | 0.00 | 0.41 | 0.13 | 82 | 1016.3 |
| 20260902173814 | 18 | 252 | 4.8 | 12.9 | 0.00 | 0.41 | 0.13 | 82 | 1016.2 |
| 20260902172329 | 18 | 279 | 4.8 | 17.7 | 0.00 | 0.41 | 0.13 | 81 | 1016.2 |
| 20260902171328 | 18 | 229 | 3.2 | 16.1 | 0.00 | 0.41 | 0.13 | 81 | 1016.2 |
| 20260902170327 | 18 | 236 | 6.4 | 17.7 | 0.00 | 0.41 | 0.13 | 80 | 1016.3 |
| 20260902165323 | 18 | 208 | 9.7 | 17.7 | 0.00 | 0.41 | 0.13 | 79 | 1016.2 |
| 20260902164318 | 19 | 209 | 6.4 | 16.1 | 0.00 | 0.41 | 0.13 | 77 | 1016.1 |
| 20260902163754 | 19 | 265 | 9.7 | 19.3 | 0.00 | 0.41 | 0.13 | 75 | 1016.2 |
| 20260902162311 | 19 | 275 | 11.3 | 29.0 | 0.00 | 0.41 | 0.13 | 74 | 1016.3 |
| 20260902161308 | 20 | 274 | 9.7 | 25.7 | 0.00 | 0.41 | 0.13 | 73 | 1016.3 |
| 20260902160744 | 20 | 242 | 14.5 | 20.9 | 0.00 | 0.41 | 0.13 | 71 | 1016.4 |
| 20260902155307 | 20 | 283 | 9.7 | 20.9 | 0.00 | 0.41 | 0.13 | 71 | 1016.3 |
| 20260902154756 | 20 | 263 | 9.7 | 17.7 | 0.00 | 0.41 | 0.13 | 69 | 1016.3 |
| 20260902153304 | 20 | 204 | 11.3 | 19.3 | 0.00 | 0.41 | 0.13 | 70 | 1016.3 |
| 20260902152301 | 20 | 254 | 9.7 | 22.5 | 0.00 | 0.41 | 0.13 | 71 | 1016.6 |
| 20260902151303 | 21 | 236 | 12.9 | 22.5 | 0.00 | 0.41 | 0.13 | 71 | 1016.4 |
| 20260902150302 | 20 | 272 | 11.3 | 19.3 | 0.00 | 0.41 | 0.13 | 73 | 1016.3 |
| 20260902145258 | 20 | 267 | 14.5 | 32.2 | 0.00 | 0.41 | 0.13 | 69 | 1016.5 |
| 20260902144255 | 20 | 271 | 11.3 | 25.7 | 0.00 | 0.41 | 0.13 | 73 | 1016.4 |
| 20260902143252 | 20 | 261 | 11.3 | 25.7 | 0.00 | 0.41 | 0.13 | 73 | 1016.4 |
| 20260902142726 | 20 | 267 | 9.7 | 22.5 | 0.00 | 0.41 | 0.13 | 76 | 1016.3 |
| 20260902141245 | 19 | 272 | 3.2 | 14.5 | 0.00 | 0.58 | 0.13 | 79 | 1016.4 |
| 20260902140241 | 19 | 306 | 4.8 | 16.1 | 0.00 | 0.61 | 0.13 | 78 | 1016.3 |